createdAt,value
2017-08-22T00:01:48.635Z,64.50
2017-08-22T00:04:16.063Z,64.60
2017-08-22T00:09:17.559Z,65.30
2017-08-22T00:11:45.096Z,65.30
2017-08-22T00:14:12.623Z,65.50
2017-08-22T00:16:40.099Z,65.70
2017-08-22T00:19:07.523Z,65.50
2017-08-22T00:21:35.030Z,65.60
2017-08-22T00:24:02.470Z,65.50
2017-08-22T00:26:29.907Z,65.40
2017-08-22T00:28:57.344Z,65.00
2017-08-22T00:31:24.788Z,65.30
2017-08-22T00:33:52.246Z,65.60
2017-08-22T00:36:19.702Z,65.80
2017-08-22T00:38:47.144Z,65.70
2017-08-22T00:41:14.572Z,66.00
2017-08-22T00:43:42.015Z,66.00
2017-08-22T00:46:09.443Z,66.00
2017-08-22T00:48:36.905Z,66.50
2017-08-22T00:51:04.342Z,65.90
2017-08-22T00:53:31.780Z,65.70
2017-08-22T00:55:59.269Z,66.10
2017-08-22T00:58:26.696Z,65.80
2017-08-22T01:00:54.123Z,65.70
2017-08-22T01:03:21.656Z,65.70
2017-08-22T01:05:49.087Z,66.30
2017-08-22T01:08:16.538Z,66.20
2017-08-22T01:10:44.097Z,66.40
2017-08-22T01:13:11.655Z,66.20
2017-08-22T01:15:39.083Z,66.10
2017-08-22T01:18:06.516Z,66.20
2017-08-22T01:20:33.944Z,66.00
2017-08-22T01:23:01.395Z,66.10
2017-08-22T01:25:28.837Z,66.60
2017-08-22T01:27:57.115Z,66.50
2017-08-22T01:30:24.553Z,66.30
2017-08-22T01:32:51.991Z,66.50
2017-08-22T01:35:19.431Z,66.30
2017-08-22T01:37:46.859Z,66.10
2017-08-22T01:40:14.303Z,66.00
2017-08-22T01:42:41.751Z,66.20
2017-08-22T01:45:09.192Z,65.80
2017-08-22T01:47:36.665Z,65.80
2017-08-22T01:50:04.103Z,65.90
2017-08-22T01:52:31.643Z,66.00
2017-08-22T01:54:59.176Z,65.90
2017-08-22T01:57:26.605Z,65.90
2017-08-22T01:59:54.140Z,66.20
2017-08-22T02:02:21.611Z,65.90
2017-08-22T02:04:50.148Z,65.60
2017-08-22T02:07:17.604Z,65.70
2017-08-22T02:09:45.159Z,66.10
2017-08-22T02:12:12.584Z,66.40
2017-08-22T02:14:40.028Z,66.30
2017-08-22T02:17:07.478Z,66.30
2017-08-22T02:19:34.916Z,66.60
2017-08-22T02:22:02.343Z,66.50
2017-08-22T02:24:29.782Z,66.60
2017-08-22T02:26:57.339Z,66.50
2017-08-22T02:29:24.800Z,66.70
2017-08-22T02:31:52.239Z,66.60
2017-08-22T02:34:19.699Z,66.80
2017-08-22T02:36:47.243Z,66.80
2017-08-22T02:39:14.692Z,66.80
2017-08-22T02:41:42.197Z,66.90
2017-08-22T02:44:09.616Z,67.00
2017-08-22T02:46:37.064Z,67.20
2017-08-22T02:49:04.483Z,67.10
2017-08-22T02:51:31.927Z,66.80
2017-08-22T02:53:59.355Z,66.90
2017-08-22T02:56:26.801Z,66.90
2017-08-22T02:58:54.245Z,66.70
2017-08-22T03:01:21.704Z,66.60
2017-08-22T03:03:49.161Z,66.60
2017-08-22T03:06:16.612Z,66.70
2017-08-22T03:08:44.037Z,67.50
2017-08-22T03:11:11.476Z,67.00
2017-08-22T03:13:38.917Z,67.00
2017-08-22T03:16:06.430Z,67.00
2017-08-22T03:18:33.856Z,67.00
2017-08-22T03:21:01.288Z,66.70
2017-08-22T03:23:28.768Z,66.70
2017-08-22T03:25:56.203Z,66.70
2017-08-22T03:28:23.811Z,66.50
2017-08-22T03:30:51.232Z,66.70
2017-08-22T03:33:18.696Z,66.80
2017-08-22T03:35:46.244Z,67.50
2017-08-22T03:38:13.707Z,67.30
2017-08-22T03:40:41.137Z,67.30
2017-08-22T03:43:08.600Z,67.20
2017-08-22T03:45:36.030Z,66.80
2017-08-22T03:48:03.469Z,66.90
2017-08-22T03:50:30.893Z,66.90
2017-08-22T03:52:58.343Z,67.20
2017-08-22T03:55:25.780Z,67.20
2017-08-22T03:57:53.241Z,66.70
2017-08-22T04:00:20.680Z,67.00
2017-08-22T04:02:48.123Z,66.80
2017-08-22T04:05:15.552Z,66.80
2017-08-22T04:07:43.016Z,67.00
2017-08-22T04:10:10.463Z,66.50
2017-08-22T04:12:38.000Z,66.50
2017-08-22T04:15:05.508Z,66.90
2017-08-22T04:17:32.960Z,66.60
2017-08-22T04:20:00.400Z,66.80
2017-08-22T04:22:27.884Z,66.90
2017-08-22T04:24:55.421Z,67.20
2017-08-22T04:27:22.855Z,67.20
2017-08-22T04:29:50.296Z,66.80
2017-08-22T04:32:17.751Z,66.80
2017-08-22T04:34:45.223Z,66.50
2017-08-22T04:37:12.718Z,66.60
2017-08-22T04:39:40.155Z,66.50
2017-08-22T04:42:07.607Z,66.70
2017-08-22T04:44:35.043Z,66.80
2017-08-22T04:47:02.471Z,66.80
2017-08-22T04:49:29.948Z,66.80
2017-08-22T04:51:57.380Z,66.80
2017-08-22T04:54:24.842Z,66.60
2017-08-22T04:56:52.272Z,66.50
2017-08-22T04:59:19.725Z,66.50
2017-08-22T05:01:47.155Z,66.40
2017-08-22T05:04:14.703Z,66.30
2017-08-22T05:06:42.128Z,66.20
2017-08-22T05:09:09.559Z,66.00
2017-08-22T05:11:37.040Z,66.30
2017-08-22T05:14:04.476Z,66.20
2017-08-22T05:16:31.940Z,66.20
2017-08-22T05:18:59.381Z,67.00
2017-08-22T05:21:26.816Z,66.00
2017-08-22T05:23:54.247Z,65.70
2017-08-22T05:26:21.688Z,65.60
2017-08-22T05:28:49.116Z,65.40
2017-08-22T05:31:16.562Z,65.50
2017-08-22T05:33:43.989Z,65.40
2017-08-22T05:36:11.427Z,65.50
2017-08-22T05:38:38.915Z,65.30
2017-08-22T05:41:06.448Z,65.40
2017-08-22T05:43:33.989Z,66.20
2017-08-22T05:46:01.437Z,65.40
2017-08-22T05:48:28.868Z,65.60
2017-08-22T05:50:56.380Z,66.10
2017-08-22T05:53:23.807Z,65.20
2017-08-22T05:55:51.247Z,65.10
2017-08-22T05:58:18.698Z,64.40
2017-08-22T06:00:46.134Z,64.10
2017-08-22T06:03:13.631Z,63.90
2017-08-22T06:05:41.180Z,63.10
2017-08-22T06:08:08.617Z,62.30
2017-08-22T06:10:36.060Z,62.00
2017-08-22T06:13:03.500Z,60.70
2017-08-22T06:15:30.935Z,60.00
2017-08-22T06:17:58.380Z,59.20
2017-08-22T06:20:25.835Z,59.40
2017-08-22T06:22:53.290Z,57.90
2017-08-22T06:25:20.719Z,57.00
2017-08-22T06:27:48.180Z,55.70
2017-08-22T06:30:15.625Z,55.50
2017-08-22T06:32:43.069Z,54.60
2017-08-22T06:35:10.552Z,54.60
2017-08-22T06:37:38.047Z,53.50
2017-08-22T06:40:05.504Z,52.70
2017-08-22T06:42:32.944Z,52.30
2017-08-22T06:45:00.468Z,51.00
2017-08-22T06:47:27.908Z,50.10
2017-08-22T06:49:55.335Z,49.20
2017-08-22T06:52:22.788Z,48.80
2017-08-22T06:54:50.216Z,48.90
2017-08-22T06:57:17.685Z,46.30
2017-08-22T06:59:45.120Z,46.30
2017-08-22T07:02:12.545Z,45.90
2017-08-22T07:04:39.981Z,46.20
2017-08-22T07:07:07.419Z,45.60
2017-08-22T07:09:34.891Z,44.60
2017-08-22T07:12:02.312Z,44.20
2017-08-22T07:14:29.759Z,43.70
2017-08-22T07:16:57.205Z,43.30
2017-08-22T07:19:24.639Z,42.80
2017-08-22T07:21:52.065Z,41.90
2017-08-22T07:24:19.500Z,41.00
2017-08-22T07:26:46.976Z,41.90
2017-08-22T07:31:48.240Z,41.50
2017-08-22T07:34:15.683Z,41.80
2017-08-22T07:36:43.287Z,41.50
2017-08-22T07:39:10.756Z,41.50
2017-08-22T07:41:38.169Z,41.00
2017-08-22T07:44:05.613Z,40.80
2017-08-22T07:46:33.133Z,40.20
2017-08-22T07:49:00.548Z,41.20
2017-08-22T07:51:28.090Z,41.30
2017-08-22T07:53:55.624Z,41.10
2017-08-22T07:56:23.063Z,39.90
2017-08-22T07:58:50.599Z,39.60
2017-08-22T08:01:18.039Z,39.50
2017-08-22T08:03:45.484Z,38.90
2017-08-22T08:06:12.923Z,39.30
2017-08-22T08:08:40.356Z,38.30
2017-08-22T08:11:07.803Z,37.40
2017-08-22T08:13:35.233Z,38.00
2017-08-22T08:16:02.672Z,37.50
2017-08-22T08:18:30.135Z,37.30
2017-08-22T08:20:57.584Z,36.40
2017-08-22T08:23:25.016Z,36.90
2017-08-22T08:25:52.495Z,36.10
2017-08-22T08:28:19.907Z,36.40
2017-08-22T08:30:47.456Z,34.40
2017-08-22T08:33:14.876Z,35.70
2017-08-22T08:35:42.319Z,35.00
2017-08-22T08:38:09.754Z,33.60
2017-08-22T08:40:37.235Z,33.70
2017-08-22T08:43:04.787Z,33.90
2017-08-22T08:45:32.259Z,32.50
2017-08-22T08:47:59.761Z,31.20
2017-08-22T08:50:27.351Z,31.80
2017-08-22T08:52:54.840Z,31.10
2017-08-22T08:55:22.272Z,31.40
2017-08-22T08:57:49.727Z,30.40
2017-08-22T09:00:17.203Z,29.70
2017-08-22T09:02:44.716Z,29.30
2017-08-22T09:05:12.162Z,28.20
2017-08-22T09:07:39.604Z,28.80
2017-08-22T09:10:07.020Z,27.90
2017-08-22T09:12:34.463Z,27.50
2017-08-22T09:15:01.896Z,28.10
2017-08-22T09:17:29.342Z,28.30
2017-08-22T09:19:56.767Z,27.80
2017-08-22T09:22:24.231Z,28.30
2017-08-22T09:24:51.648Z,28.20
2017-08-22T09:27:19.128Z,27.60
2017-08-22T09:29:46.563Z,28.20
2017-08-22T09:32:14.006Z,27.80
2017-08-22T09:34:41.436Z,28.70
2017-08-22T09:37:08.911Z,26.00
2017-08-22T09:39:36.360Z,26.30
2017-08-22T09:42:03.806Z,26.10
2017-08-22T09:44:31.243Z,27.70
2017-08-22T09:46:58.708Z,27.20
2017-08-22T09:49:26.139Z,27.60
2017-08-22T09:51:53.673Z,28.30
2017-08-22T09:54:21.116Z,26.60
2017-08-22T09:56:48.662Z,26.70
2017-08-22T09:59:16.128Z,26.40
2017-08-22T10:01:43.524Z,26.80
2017-08-22T10:04:10.968Z,27.80
2017-08-22T10:06:38.478Z,28.50
2017-08-22T10:09:05.984Z,27.30
2017-08-22T10:11:33.408Z,27.40
2017-08-22T10:14:00.950Z,27.80
2017-08-22T10:17:04.820Z,27.10
2017-08-22T10:19:34.212Z,27.70
2017-08-22T10:22:01.643Z,28.60
2017-08-22T10:24:29.114Z,28.10
2017-08-22T10:26:56.603Z,28.40
2017-08-22T10:29:24.052Z,28.60
2017-08-22T10:31:51.604Z,28.90
2017-08-22T10:34:19.048Z,28.00
2017-08-22T10:36:46.479Z,26.50
2017-08-22T10:39:13.918Z,26.40
2017-08-22T10:41:41.364Z,25.60
2017-08-22T10:44:08.784Z,26.20
2017-08-22T10:46:36.221Z,26.30
2017-08-22T10:49:03.677Z,27.40
2017-08-22T10:51:31.108Z,27.70
2017-08-22T10:53:58.556Z,29.00
2017-08-22T10:56:26.071Z,29.60
2017-08-22T10:58:53.540Z,30.40
2017-08-22T11:01:20.981Z,30.00
2017-08-22T11:03:48.417Z,30.30
2017-08-22T11:06:15.843Z,30.30
2017-08-22T11:08:43.297Z,30.00
2017-08-22T11:11:10.740Z,30.30
2017-08-22T11:13:38.246Z,30.90
2017-08-22T11:16:05.875Z,30.30
2017-08-22T11:18:33.302Z,31.60
2017-08-22T11:21:00.741Z,31.40
2017-08-22T11:23:28.164Z,31.40
2017-08-22T11:25:55.631Z,30.30
2017-08-22T11:28:23.164Z,30.00
2017-08-22T11:30:50.611Z,29.50
2017-08-22T11:33:18.048Z,29.30
2017-08-22T11:35:45.496Z,29.60
2017-08-22T11:38:12.939Z,30.70
2017-08-22T11:40:40.376Z,30.10
2017-08-22T11:43:07.831Z,30.40
2017-08-22T11:45:35.363Z,29.70
2017-08-22T11:48:02.819Z,29.80
2017-08-22T11:50:30.368Z,29.90
2017-08-22T11:52:57.869Z,30.00
2017-08-22T11:55:25.321Z,30.00
2017-08-22T11:57:52.752Z,29.40
2017-08-22T12:00:20.196Z,30.70
2017-08-22T12:02:47.691Z,30.60
2017-08-22T12:05:15.219Z,30.30
2017-08-22T12:07:42.795Z,30.40
2017-08-22T12:10:10.228Z,32.10
2017-08-22T12:12:37.764Z,32.00
2017-08-22T12:15:05.460Z,32.30
2017-08-22T12:17:32.946Z,32.50
2017-08-22T12:20:00.385Z,32.70
2017-08-22T12:22:27.844Z,34.10
2017-08-22T12:24:55.280Z,32.90
2017-08-22T12:27:22.704Z,32.90
2017-08-22T12:29:50.139Z,32.30
2017-08-22T12:32:17.599Z,33.20
2017-08-22T12:34:45.042Z,33.30
2017-08-22T12:37:12.526Z,33.00
2017-08-22T12:39:39.936Z,33.80
2017-08-22T12:42:07.370Z,33.50
2017-08-22T12:44:34.796Z,32.50
2017-08-22T12:47:02.250Z,32.70
2017-08-22T12:49:29.673Z,33.30
2017-08-22T12:51:57.128Z,35.10
2017-08-22T12:54:24.559Z,33.40
2017-08-22T12:56:52.008Z,33.30
2017-08-22T12:59:19.427Z,32.00
2017-08-22T13:01:46.880Z,31.60
2017-08-22T13:04:14.321Z,32.20
2017-08-22T13:06:41.744Z,31.80
2017-08-22T13:09:09.195Z,32.50
2017-08-22T13:11:36.748Z,31.40
2017-08-22T13:14:04.172Z,31.30
2017-08-22T13:16:31.995Z,31.00
2017-08-22T13:18:59.462Z,31.00
2017-08-22T13:21:26.985Z,31.20
2017-08-22T13:23:54.606Z,31.60
2017-08-22T13:26:22.088Z,30.90
2017-08-22T13:28:49.520Z,31.60
2017-08-22T13:31:16.964Z,32.10
2017-08-22T13:33:44.404Z,31.90
2017-08-22T13:36:11.856Z,31.20
2017-08-22T13:38:39.315Z,31.80
2017-08-22T13:41:06.752Z,32.50
2017-08-22T13:43:34.198Z,31.90
2017-08-22T13:46:01.624Z,32.30
2017-08-22T13:48:29.161Z,32.10
2017-08-22T13:50:56.640Z,31.90
2017-08-22T13:53:24.226Z,32.90
2017-08-22T13:55:51.688Z,32.60
2017-08-22T13:58:19.145Z,33.20
2017-08-22T14:00:46.584Z,33.10
2017-08-22T14:03:14.036Z,33.20
2017-08-22T14:05:41.555Z,33.50
2017-08-22T14:08:09.013Z,34.30
2017-08-22T14:10:36.444Z,32.80
2017-08-22T14:13:03.908Z,33.10
2017-08-22T14:15:31.547Z,32.80
2017-08-22T14:17:58.999Z,33.20
2017-08-22T14:20:26.523Z,33.40
2017-08-22T14:22:53.950Z,33.40
2017-08-22T14:25:21.383Z,33.20
2017-08-22T14:27:48.866Z,33.70
2017-08-22T14:30:16.329Z,32.40
2017-08-22T14:32:43.770Z,33.00
2017-08-22T14:35:11.207Z,33.10
2017-08-22T14:37:38.723Z,33.20
2017-08-22T14:40:06.268Z,33.60
2017-08-22T14:42:33.698Z,32.80
2017-08-22T14:45:01.140Z,32.90
2017-08-22T14:47:28.595Z,33.80
2017-08-22T14:49:56.045Z,33.30
2017-08-22T14:52:23.475Z,33.60
2017-08-22T14:54:50.909Z,33.60
2017-08-22T14:57:18.441Z,34.40
2017-08-22T14:59:45.903Z,34.10
2017-08-22T15:02:13.366Z,33.50
2017-08-22T15:04:40.792Z,33.90
2017-08-22T15:07:08.224Z,33.80
2017-08-22T15:09:35.675Z,34.30
2017-08-22T15:12:03.120Z,34.70
2017-08-22T15:14:30.583Z,34.90
2017-08-22T15:16:58.121Z,34.90
2017-08-22T15:19:25.553Z,34.90
2017-08-22T15:21:53.039Z,33.90
2017-08-22T15:24:20.598Z,33.70
2017-08-22T15:26:48.651Z,34.70
2017-08-22T15:29:16.081Z,34.30
2017-08-22T15:31:43.526Z,34.70
2017-08-22T15:34:10.943Z,35.00
2017-08-22T15:36:38.376Z,34.20
2017-08-22T15:39:05.811Z,33.70
2017-08-22T15:41:33.254Z,34.30
2017-08-22T15:44:00.668Z,34.30
2017-08-22T15:46:28.284Z,34.30
2017-08-22T15:48:55.746Z,34.00
2017-08-22T15:51:23.180Z,34.60
2017-08-22T15:53:50.637Z,34.80
2017-08-22T15:56:18.158Z,35.30
2017-08-22T15:58:45.728Z,35.50
2017-08-22T16:01:13.248Z,35.90
2017-08-22T16:03:40.688Z,36.30
2017-08-22T16:06:08.145Z,36.40
2017-08-22T16:08:35.782Z,36.50
2017-08-22T16:11:03.203Z,36.60
2017-08-22T16:13:30.649Z,36.00
2017-08-22T16:15:58.747Z,36.00
2017-08-22T16:18:26.168Z,35.50
2017-08-22T16:20:53.604Z,35.70
2017-08-22T16:23:21.076Z,35.70
2017-08-22T16:25:48.527Z,35.40
2017-08-22T16:28:15.960Z,35.40
2017-08-22T16:30:43.412Z,35.70
2017-08-22T16:33:10.891Z,36.00
2017-08-22T16:35:38.426Z,35.70
2017-08-22T16:38:05.856Z,35.90
2017-08-22T16:40:33.305Z,35.80
2017-08-22T16:43:00.764Z,36.20
2017-08-22T16:45:28.191Z,35.70
2017-08-22T16:47:55.640Z,35.70
2017-08-22T16:50:23.092Z,36.10
2017-08-22T16:52:50.546Z,36.30
2017-08-22T16:55:18.068Z,36.20
2017-08-22T16:57:45.513Z,35.50
2017-08-22T17:00:12.980Z,36.10
2017-08-22T17:02:40.500Z,36.90
2017-08-22T17:05:07.938Z,36.00
2017-08-22T17:07:35.384Z,35.80
2017-08-22T17:10:02.844Z,36.00
2017-08-22T17:12:30.263Z,36.30
2017-08-22T17:14:57.806Z,36.30
2017-08-22T17:17:25.239Z,36.20
2017-08-22T17:19:52.686Z,36.20
2017-08-22T17:22:20.125Z,36.00
2017-08-22T17:24:47.580Z,36.20
2017-08-22T17:27:15.005Z,35.90
2017-08-22T17:29:42.527Z,35.40
2017-08-22T17:32:09.964Z,36.80
2017-08-22T17:34:37.551Z,36.50
2017-08-22T17:37:04.980Z,36.50
2017-08-22T17:39:32.508Z,36.70
2017-08-22T17:41:59.932Z,36.90
2017-08-22T17:44:27.378Z,37.20
2017-08-22T17:46:54.834Z,37.70
2017-08-22T17:49:22.372Z,38.10
2017-08-22T17:51:49.816Z,38.40
2017-08-22T17:54:17.247Z,38.60
2017-08-22T17:56:44.726Z,38.90
2017-08-22T17:59:12.196Z,39.10
2017-08-22T18:01:39.636Z,39.40
2017-08-22T18:04:07.232Z,39.40
2017-08-22T18:06:34.668Z,39.50
2017-08-22T18:09:02.124Z,40.30
2017-08-22T18:11:29.675Z,40.00
2017-08-22T18:13:57.106Z,40.50
2017-08-22T18:16:24.539Z,41.10
2017-08-22T18:18:51.969Z,41.00
2017-08-22T18:21:19.407Z,41.40
2017-08-22T18:23:46.883Z,41.70
2017-08-22T18:26:14.324Z,41.90
2017-08-22T18:28:41.954Z,41.80
2017-08-22T18:31:09.414Z,42.00
2017-08-22T18:33:36.864Z,42.30
2017-08-22T18:36:04.315Z,42.50
2017-08-22T18:38:31.749Z,42.90
2017-08-22T18:41:00.182Z,42.60
2017-08-22T18:43:27.634Z,42.10
2017-08-22T18:45:55.099Z,42.70
2017-08-22T18:48:22.558Z,42.50
2017-08-22T18:50:50.004Z,42.80
2017-08-22T18:53:17.520Z,43.00
2017-08-22T18:55:44.945Z,43.30
2017-08-22T18:58:12.684Z,43.00
2017-08-22T19:00:40.128Z,43.40
2017-08-22T19:03:07.611Z,43.30
2017-08-22T19:05:35.109Z,43.50
2017-08-22T19:08:02.563Z,43.80
2017-08-22T19:10:29.983Z,44.30
2017-08-22T19:12:57.435Z,44.30
2017-08-22T19:15:24.908Z,44.50
2017-08-22T19:17:52.348Z,44.60
2017-08-22T19:20:19.892Z,45.10
2017-08-22T19:22:47.342Z,46.00
2017-08-22T19:25:14.791Z,46.40
2017-08-22T19:27:42.357Z,47.20
2017-08-22T19:30:09.886Z,47.70
2017-08-22T19:32:37.328Z,48.40
2017-08-22T19:35:04.881Z,48.80
2017-08-22T19:37:32.328Z,49.10
2017-08-22T19:39:59.755Z,49.60
2017-08-22T19:42:27.386Z,49.60
2017-08-22T19:44:54.872Z,49.60
2017-08-22T19:47:22.311Z,49.60
2017-08-22T19:49:49.769Z,49.40
2017-08-22T19:52:17.261Z,49.60
2017-08-22T19:54:44.712Z,49.80
2017-08-22T19:57:12.141Z,50.00
2017-08-22T19:59:39.601Z,50.50
2017-08-22T20:02:07.151Z,50.50
2017-08-22T20:04:34.685Z,51.00
2017-08-22T20:07:02.120Z,51.00
2017-08-22T20:09:29.555Z,51.30
2017-08-22T20:11:56.988Z,51.60
2017-08-22T20:14:24.435Z,51.80
2017-08-22T20:16:51.930Z,52.40
2017-08-22T20:19:19.364Z,52.60
2017-08-22T20:21:46.892Z,52.60
2017-08-22T20:24:14.327Z,52.80
2017-08-22T20:26:41.779Z,53.10
2017-08-22T20:29:09.332Z,53.10
2017-08-22T20:31:36.772Z,53.00
2017-08-22T20:34:04.300Z,52.80
2017-08-22T20:36:31.832Z,53.00
2017-08-22T20:38:59.316Z,52.70
2017-08-22T20:41:26.832Z,52.50
2017-08-22T20:43:54.379Z,52.40
2017-08-22T20:46:21.816Z,52.50
2017-08-22T20:48:49.244Z,52.70
2017-08-22T20:51:16.702Z,53.30
2017-08-22T20:53:44.165Z,53.60
2017-08-22T20:56:11.612Z,53.00
2017-08-22T20:58:39.127Z,52.90
2017-08-22T21:01:07.600Z,54.00
2017-08-22T21:03:35.036Z,53.50
2017-08-22T21:06:02.597Z,53.80
2017-08-22T21:08:30.040Z,54.10
2017-08-22T21:10:57.503Z,54.50
2017-08-22T21:13:24.944Z,54.90
2017-08-22T21:15:52.395Z,55.60
2017-08-22T21:18:19.987Z,55.90
2017-08-22T21:20:47.450Z,56.20
2017-08-22T21:23:14.887Z,56.40
2017-08-22T21:25:42.328Z,56.70
2017-08-22T21:28:09.779Z,56.70
2017-08-22T21:30:37.451Z,56.50
2017-08-22T21:33:04.963Z,56.30
2017-08-22T21:35:32.404Z,55.90
2017-08-22T21:37:59.847Z,55.90
2017-08-22T21:40:27.305Z,56.10
2017-08-22T21:42:54.755Z,56.40
2017-08-22T21:45:22.200Z,56.90
2017-08-22T21:47:49.648Z,57.80
2017-08-22T21:50:17.888Z,57.50
2017-08-22T21:52:45.390Z,57.50
2017-08-22T21:55:12.825Z,57.60
2017-08-22T21:57:40.281Z,57.60
2017-08-22T22:00:07.716Z,57.90
2017-08-22T22:02:35.179Z,58.20
2017-08-22T22:05:02.611Z,58.30
2017-08-22T22:07:30.108Z,58.50
2017-08-22T22:09:57.630Z,58.90
2017-08-22T22:12:25.078Z,59.30
2017-08-22T22:14:52.504Z,59.00
2017-08-22T22:17:19.960Z,59.20
2017-08-22T22:19:47.596Z,59.00
2017-08-22T22:22:15.058Z,59.40
2017-08-22T22:24:42.492Z,59.50
2017-08-22T22:27:10.036Z,59.60
2017-08-22T22:29:37.484Z,59.20
2017-08-22T22:32:04.916Z,59.20
2017-08-22T22:34:32.372Z,59.40
2017-08-22T22:36:59.907Z,59.10
2017-08-22T22:39:27.412Z,58.80
2017-08-22T22:41:54.844Z,58.70
2017-08-22T22:44:22.333Z,58.70
2017-08-22T22:46:49.784Z,58.70
2017-08-22T22:49:17.225Z,59.20
2017-08-22T22:51:44.671Z,59.00
2017-08-22T22:54:12.126Z,58.90
2017-08-22T22:56:40.507Z,59.10
2017-08-22T22:59:07.951Z,58.80
2017-08-22T23:01:35.404Z,58.90
2017-08-22T23:04:02.855Z,58.90
2017-08-22T23:06:30.292Z,59.20
2017-08-22T23:08:57.732Z,59.20
2017-08-22T23:11:25.248Z,58.70
2017-08-22T23:13:52.787Z,59.10
2017-08-22T23:16:20.326Z,59.50
2017-08-22T23:18:47.897Z,59.20
2017-08-22T23:21:15.403Z,59.30
2017-08-22T23:23:42.867Z,59.30
2017-08-22T23:26:10.411Z,59.50
2017-08-22T23:28:37.841Z,59.60
2017-08-22T23:31:05.284Z,59.90
2017-08-22T23:33:32.839Z,60.10
2017-08-22T23:36:00.364Z,60.50
2017-08-22T23:38:27.813Z,60.80
2017-08-22T23:40:55.365Z,60.80
2017-08-22T23:43:22.803Z,61.00
2017-08-22T23:45:50.259Z,61.10
2017-08-22T23:48:17.789Z,61.20
2017-08-22T23:50:45.241Z,61.30
2017-08-22T23:53:12.781Z,61.40
2017-08-22T23:55:40.312Z,61.50
2017-08-22T23:58:07.748Z,61.70
